createdAt,value
2018-01-20T00:02:22.690Z,84.71
2018-01-20T00:04:54.329Z,85.45
2018-01-20T00:07:25.739Z,85.31
2018-01-20T00:10:20.652Z,85.22
2018-01-20T00:12:52.135Z,85.54
2018-01-20T00:15:23.988Z,85.77
2018-01-20T00:18:00.332Z,84.81
2018-01-20T00:20:31.450Z,85.52
2018-01-20T00:23:02.935Z,85.18
2018-01-20T00:25:34.472Z,85.08
2018-01-20T00:28:07.283Z,85.49
2018-01-20T00:30:38.954Z,85.71
2018-01-20T00:33:10.862Z,85.68
2018-01-20T00:35:42.056Z,85.52
2018-01-20T00:38:13.305Z,85.80
2018-01-20T00:40:45.147Z,85.26
2018-01-20T00:43:16.442Z,84.86
2018-01-20T00:45:47.787Z,85.07
2018-01-20T00:48:19.277Z,85.21
2018-01-20T00:50:50.478Z,85.39
2018-01-20T00:53:22.040Z,84.99
2018-01-20T00:55:53.430Z,86.00
2018-01-20T00:58:25.856Z,85.48
2018-01-20T01:00:56.817Z,85.67
2018-01-20T01:03:28.214Z,85.52
2018-01-20T01:05:59.300Z,85.29
2018-01-20T01:08:30.502Z,85.25
2018-01-20T01:11:01.341Z,84.74
2018-01-20T01:13:32.329Z,85.52
2018-01-20T01:16:03.726Z,85.72
2018-01-20T01:18:34.665Z,84.95
2018-01-20T01:21:05.526Z,86.53
2018-01-20T01:23:36.441Z,86.49
2018-01-20T01:26:07.360Z,86.35
2018-01-20T01:28:38.476Z,86.37
2018-01-20T01:31:09.320Z,86.79
2018-01-20T01:33:40.298Z,85.83
2018-01-20T01:36:11.533Z,86.06
2018-01-20T01:38:42.750Z,85.33
2018-01-20T01:41:13.703Z,85.83
2018-01-20T01:43:44.725Z,85.82
2018-01-20T01:46:15.709Z,85.94
2018-01-20T01:48:46.791Z,86.08
2018-01-20T01:51:18.085Z,86.25
2018-01-20T01:53:49.148Z,86.05
2018-01-20T01:56:20.193Z,86.51
2018-01-20T01:58:51.321Z,86.22
2018-01-20T02:01:23.388Z,85.96
2018-01-20T02:03:55.117Z,85.96
2018-01-20T02:06:26.636Z,85.92
2018-01-20T02:08:57.759Z,85.85
2018-01-20T02:11:28.585Z,85.08
2018-01-20T02:13:59.641Z,86.22
2018-01-20T02:16:30.947Z,86.58
2018-01-20T02:19:01.971Z,86.53
2018-01-20T02:21:33.882Z,85.88
2018-01-20T02:24:05.134Z,86.66
2018-01-20T02:26:36.340Z,86.83
2018-01-20T02:29:07.327Z,88.08
2018-01-20T02:31:38.325Z,87.81
2018-01-20T02:34:09.489Z,88.89
2018-01-20T02:36:40.815Z,87.47
2018-01-20T02:39:11.787Z,88.53
2018-01-20T02:41:42.663Z,88.04
2018-01-20T02:44:13.679Z,88.34
2018-01-20T02:46:45.050Z,88.00
2018-01-20T02:49:16.430Z,88.16
2018-01-20T02:51:47.631Z,87.79
2018-01-20T02:54:18.723Z,88.49
2018-01-20T02:56:51.475Z,88.33
2018-01-20T02:59:23.735Z,87.53
2018-01-20T03:01:54.951Z,88.36
2018-01-20T03:04:25.923Z,88.15
2018-01-20T03:06:56.860Z,88.08
2018-01-20T03:09:28.415Z,88.53
2018-01-20T03:11:59.387Z,87.79
2018-01-20T03:14:30.347Z,87.76
2018-01-20T03:17:01.668Z,87.58
2018-01-20T03:19:32.728Z,88.35
2018-01-20T03:22:04.599Z,87.94
2018-01-20T03:24:35.627Z,88.20
2018-01-20T03:27:07.466Z,88.08
2018-01-20T03:29:38.875Z,87.74
2018-01-20T03:32:09.976Z,88.04
2018-01-20T03:34:40.870Z,87.76
2018-01-20T03:37:11.771Z,87.73
2018-01-20T03:39:42.731Z,87.16
2018-01-20T04:08:59.954Z,86.10
2018-01-20T04:11:29.613Z,86.18
2018-01-20T04:13:58.926Z,85.90
2018-01-20T04:16:28.715Z,85.28
2018-01-20T04:18:58.007Z,84.89
2018-01-20T04:21:27.371Z,84.81
2018-01-20T04:23:57.047Z,84.58
2018-01-20T04:26:26.450Z,84.72
2018-01-20T04:28:55.829Z,84.63
2018-01-20T04:31:25.130Z,84.05
2018-01-20T04:33:54.437Z,84.00
2018-01-20T04:36:23.778Z,83.79
2018-01-20T04:38:53.130Z,83.60
2018-01-20T04:41:22.414Z,83.64
2018-01-20T04:43:51.826Z,83.81
2018-01-20T04:46:21.448Z,83.99
2018-01-20T04:48:50.763Z,83.89
2018-01-20T04:51:20.037Z,82.86
2018-01-20T04:53:49.410Z,83.04
2018-01-20T04:56:18.763Z,82.73
2018-01-20T04:58:48.687Z,82.92
2018-01-20T05:01:18.410Z,83.41
2018-01-20T05:03:47.727Z,83.41
2018-01-20T05:06:17.006Z,83.62
2018-01-20T05:08:46.762Z,83.79
2018-01-20T05:11:16.062Z,83.30
2018-01-20T05:13:45.563Z,83.33
2018-01-20T05:16:15.339Z,83.64
2018-01-20T05:18:44.713Z,84.43
2018-01-20T05:21:14.010Z,84.13
2018-01-20T05:23:43.477Z,84.35
2018-01-20T05:26:12.784Z,84.60
2018-01-20T05:28:42.628Z,84.99
2018-01-20T05:31:12.274Z,85.00
2018-01-20T05:33:41.688Z,84.80
2018-01-20T05:36:10.970Z,84.28
2018-01-20T05:38:40.362Z,84.23
2018-01-20T05:41:09.670Z,84.76
2018-01-20T05:43:39.007Z,84.57
2018-01-20T05:46:08.770Z,84.86
2018-01-20T05:48:38.251Z,84.73
2018-01-20T05:51:07.820Z,85.13
2018-01-20T05:53:37.287Z,84.48
2018-01-20T05:56:06.730Z,85.17
2018-01-20T05:58:36.296Z,85.40
2018-01-20T06:01:10.382Z,85.14
2018-01-20T06:03:39.731Z,85.02
2018-01-20T06:08:42.809Z,85.45
2018-01-20T06:11:13.016Z,85.34
2018-01-20T06:13:42.570Z,85.43
2018-01-20T06:16:11.875Z,85.24
2018-01-20T06:18:41.902Z,85.37
2018-01-20T06:21:11.281Z,84.82
2018-01-20T06:23:40.694Z,85.30
2018-01-20T06:26:10.313Z,85.42
2018-01-20T06:28:39.877Z,84.92
2018-01-20T06:31:09.298Z,85.49
2018-01-20T06:33:38.693Z,84.53
2018-01-20T06:36:08.507Z,84.97
2018-01-20T06:38:38.492Z,84.85
2018-01-20T06:41:08.162Z,84.87
2018-01-20T06:43:38.403Z,85.32
2018-01-20T06:46:08.038Z,85.10
2018-01-20T06:48:37.431Z,85.77
2018-01-20T06:51:07.258Z,85.68
2018-01-20T06:53:36.595Z,85.80
2018-01-20T06:56:05.943Z,85.80
2018-01-20T06:58:35.753Z,85.09
2018-01-20T07:01:05.073Z,85.76
2018-01-20T07:03:34.605Z,85.15
2018-01-20T07:06:04.340Z,84.49
2018-01-20T07:08:33.769Z,85.14
2018-01-20T07:11:03.091Z,84.98
2018-01-20T07:13:33.067Z,85.15
2018-01-20T07:16:02.503Z,85.68
2018-01-20T07:18:32.024Z,85.54
2018-01-20T07:21:01.620Z,85.50
2018-01-20T07:23:31.234Z,85.48
2018-01-20T07:26:03.044Z,85.40
2018-01-20T07:28:33.576Z,84.88
2018-01-20T07:31:03.485Z,85.02
2018-01-20T07:33:33.101Z,85.71
2018-01-20T07:36:03.622Z,84.95
2018-01-20T07:38:33.318Z,85.57
2018-01-20T07:41:02.955Z,85.93
2018-01-20T07:43:32.696Z,86.09
2018-01-20T07:46:02.987Z,86.01
2018-01-20T07:48:34.082Z,84.77
2018-01-20T07:51:04.510Z,83.68
2018-01-20T07:53:35.166Z,84.25
2018-01-20T07:56:06.784Z,84.19
2018-01-20T07:58:36.753Z,84.64
2018-01-20T08:01:06.996Z,84.99
2018-01-20T08:03:36.431Z,85.66
2018-01-20T08:06:06.353Z,85.02
2018-01-20T08:08:35.728Z,84.77
2018-01-20T08:11:05.055Z,84.29
2018-01-20T08:13:35.086Z,84.69
2018-01-20T08:16:04.980Z,83.93
2018-01-20T08:18:34.419Z,84.75
2018-01-20T08:21:04.420Z,84.71
2018-01-20T08:23:34.052Z,84.69
2018-01-20T08:26:03.838Z,84.71
2018-01-20T08:28:33.539Z,84.98
2018-01-20T08:31:03.172Z,84.89
2018-01-20T08:33:32.628Z,84.69
2018-01-20T08:36:02.555Z,85.00
2018-01-20T08:38:32.254Z,85.11
2018-01-20T08:41:01.643Z,84.87
2018-01-20T08:43:31.320Z,85.57
2018-01-20T08:46:01.188Z,85.01
2018-01-20T08:48:30.935Z,84.34
2018-01-20T08:51:00.614Z,84.39
2018-01-20T08:53:30.042Z,84.97
2018-01-20T08:55:59.395Z,84.03
2018-01-20T08:58:29.258Z,83.53
2018-01-20T09:00:58.695Z,81.96
2018-01-20T09:03:28.016Z,82.82
2018-01-20T09:05:57.634Z,83.01
2018-01-20T09:08:26.947Z,82.54
2018-01-20T09:10:56.307Z,82.30
2018-01-20T09:13:26.002Z,81.72
2018-01-20T09:15:55.483Z,81.69
2018-01-20T09:18:24.884Z,81.77
2018-01-20T09:20:54.808Z,81.85
2018-01-20T09:23:24.947Z,82.31
2018-01-20T09:25:54.642Z,81.30
2018-01-20T09:28:24.277Z,80.80
2018-01-20T09:30:54.211Z,80.23
2018-01-20T09:33:23.633Z,80.44
2018-01-20T09:35:53.354Z,78.54
2018-01-20T09:38:22.702Z,78.48
2018-01-20T09:40:52.076Z,77.96
2018-01-20T09:43:21.686Z,77.31
2018-01-20T09:45:51.036Z,76.99
2018-01-20T09:48:20.337Z,78.62
2018-01-20T09:50:49.950Z,78.63
2018-01-20T09:53:19.290Z,76.85
2018-01-20T09:55:48.590Z,75.80
2018-01-20T09:58:18.206Z,77.54
2018-01-20T10:00:47.531Z,75.18
2018-01-20T10:03:16.839Z,76.22
2018-01-20T10:05:46.422Z,77.42
2018-01-20T10:08:15.734Z,76.74
2018-01-20T10:10:45.071Z,77.23
2018-01-20T10:13:15.323Z,76.05
2018-01-20T10:15:44.778Z,76.48
2018-01-20T10:18:14.082Z,75.85
2018-01-20T10:20:43.581Z,75.67
2018-01-20T10:23:13.038Z,76.50
2018-01-20T10:25:42.448Z,75.82
2018-01-20T10:28:12.469Z,75.46
2018-01-20T10:30:42.207Z,76.19
2018-01-20T10:33:12.034Z,76.78
2018-01-20T10:35:42.504Z,76.69
2018-01-20T10:38:11.993Z,77.08
2018-01-20T10:40:41.770Z,76.99
2018-01-20T10:43:11.696Z,76.24
2018-01-20T10:45:41.378Z,76.74
2018-01-20T10:48:11.147Z,74.86
2018-01-20T10:50:41.307Z,75.75
2018-01-20T10:53:10.992Z,75.53
2018-01-20T10:55:40.488Z,77.21
2018-01-20T10:58:10.543Z,76.18
2018-01-20T11:00:40.498Z,76.22
2018-01-20T11:03:10.390Z,75.85
2018-01-20T11:05:41.565Z,76.12
2018-01-20T11:08:12.928Z,74.77
2018-01-20T11:10:43.495Z,76.09
2018-01-20T11:13:21.668Z,75.26
2018-01-20T11:15:51.738Z,75.07
2018-01-20T11:18:21.982Z,74.54
2018-01-20T11:20:51.931Z,73.68
2018-01-20T11:23:21.331Z,73.41
2018-01-20T11:25:51.095Z,73.41
2018-01-20T11:28:20.381Z,74.73
2018-01-20T11:30:49.851Z,73.95
2018-01-20T11:33:19.429Z,72.75
2018-01-20T11:35:48.930Z,73.43
2018-01-20T11:38:18.585Z,74.14
2018-01-20T11:40:48.291Z,73.26
2018-01-20T11:43:18.106Z,73.22
2018-01-20T11:45:47.510Z,73.61
2018-01-20T11:48:17.160Z,72.73
2018-01-20T11:50:46.621Z,72.64
2018-01-20T11:53:16.060Z,71.61
2018-01-20T11:55:46.126Z,72.36
2018-01-20T11:58:15.658Z,72.49
2018-01-20T12:00:45.350Z,72.43
2018-01-20T12:03:14.998Z,70.71
2018-01-20T12:05:44.490Z,71.29
2018-01-20T12:08:13.803Z,71.93
2018-01-20T12:10:48.294Z,70.89
2018-01-20T12:13:17.767Z,70.71
2018-01-20T12:15:47.651Z,70.74
2018-01-20T12:18:23.556Z,70.07
2018-01-20T12:20:53.158Z,70.74
2018-01-20T12:23:23.297Z,69.89
2018-01-20T12:25:52.970Z,70.71
2018-01-20T12:28:23.554Z,70.42
2018-01-20T12:30:53.528Z,71.52
2018-01-20T12:33:24.734Z,70.21
2018-01-20T12:35:54.595Z,70.98
2018-01-20T12:38:26.528Z,70.57
2018-01-20T12:40:56.159Z,71.33
2018-01-20T12:43:25.616Z,70.61
2018-01-20T12:45:55.506Z,71.45
2018-01-20T12:48:24.890Z,71.17
2018-01-20T12:50:54.474Z,70.80
2018-01-20T12:53:24.290Z,71.30
2018-01-20T12:55:53.795Z,71.37
2018-01-20T12:58:23.106Z,72.34
2018-01-20T13:00:53.170Z,72.01
2018-01-20T13:03:22.552Z,71.54
2018-01-20T13:05:52.132Z,71.63
2018-01-20T13:08:21.819Z,71.04
2018-01-20T13:10:52.086Z,71.60
2018-01-20T13:13:21.860Z,72.25
2018-01-20T13:15:51.836Z,71.99
2018-01-20T13:18:21.352Z,72.46
2018-01-20T13:20:50.827Z,72.76
2018-01-20T13:23:20.598Z,72.38
2018-01-20T13:25:50.006Z,72.65
2018-01-20T13:28:19.349Z,72.75
2018-01-20T13:30:49.242Z,72.58
2018-01-20T13:33:18.598Z,71.64
2018-01-20T13:35:48.040Z,71.68
2018-01-20T13:38:17.755Z,72.39
2018-01-20T13:40:47.250Z,72.00
2018-01-20T13:43:16.788Z,72.29
2018-01-20T13:45:46.461Z,73.06
2018-01-20T13:48:16.130Z,71.94
2018-01-20T13:50:45.875Z,72.08
2018-01-20T13:53:15.660Z,72.37
2018-01-20T13:55:45.151Z,72.37
2018-01-20T13:58:14.570Z,72.23
2018-01-20T14:00:44.247Z,72.59
2018-01-20T14:03:13.668Z,71.67
2018-01-20T14:05:43.206Z,71.28
2018-01-20T14:08:12.882Z,71.58
2018-01-20T14:10:42.287Z,71.55
2018-01-20T14:13:11.821Z,72.44
2018-01-20T14:15:42.526Z,72.14
2018-01-20T14:18:11.931Z,72.31
2018-01-20T14:20:41.621Z,72.30
2018-01-20T14:23:11.475Z,72.45
2018-01-20T14:25:40.778Z,72.21
2018-01-20T14:28:10.148Z,72.15
2018-01-20T14:30:40.202Z,72.36
2018-01-20T14:33:11.038Z,73.13
2018-01-20T14:35:40.970Z,73.18
2018-01-20T14:38:10.419Z,72.87
2018-01-20T14:40:40.075Z,73.83
2018-01-20T14:45:37.903Z,72.63
2018-01-20T14:48:07.294Z,72.82
2018-01-20T14:50:36.975Z,73.10
2018-01-20T14:53:06.590Z,74.37
2018-01-20T14:55:35.923Z,73.45
2018-01-20T14:58:05.863Z,73.85
2018-01-20T15:00:35.216Z,73.33
2018-01-20T15:03:04.790Z,74.39
2018-01-20T15:05:34.182Z,74.02
2018-01-20T15:08:03.770Z,74.26
2018-01-20T15:10:33.363Z,75.23
2018-01-20T15:13:03.532Z,74.96
2018-01-20T15:15:32.890Z,74.75
2018-01-20T15:18:02.398Z,74.15
2018-01-20T15:20:32.053Z,75.31
2018-01-20T15:23:01.440Z,75.89
2018-01-20T15:25:30.851Z,76.31
2018-01-20T15:28:00.531Z,76.02
2018-01-20T15:30:29.875Z,76.48
2018-01-20T15:32:59.338Z,76.59
2018-01-20T15:35:28.963Z,76.79
2018-01-20T15:37:58.431Z,76.76
2018-01-20T15:40:27.891Z,76.93
2018-01-20T15:42:57.559Z,76.95
2018-01-20T15:45:26.935Z,76.94
2018-01-20T15:47:56.891Z,77.53
2018-01-20T15:50:26.612Z,78.29
2018-01-20T15:52:56.096Z,77.72
2018-01-20T15:55:25.470Z,78.35
2018-01-20T15:57:55.454Z,78.01
2018-01-20T16:00:25.066Z,77.74
2018-01-20T16:02:54.617Z,78.25
2018-01-20T16:05:24.439Z,76.92
2018-01-20T16:07:53.838Z,76.90
2018-01-20T16:10:23.541Z,76.28
2018-01-20T16:12:53.214Z,77.73
2018-01-20T16:15:22.751Z,76.76
2018-01-20T16:17:52.191Z,77.90
2018-01-20T16:20:21.895Z,77.40
2018-01-20T16:22:51.333Z,76.49
2018-01-20T16:25:20.990Z,76.21
2018-01-20T16:27:50.946Z,76.19
2018-01-20T16:30:24.516Z,76.85
2018-01-20T16:32:54.874Z,77.38
2018-01-20T16:35:25.047Z,77.89
2018-01-20T16:37:54.621Z,78.09
2018-01-20T16:40:24.441Z,77.51
2018-01-20T16:42:53.821Z,77.61
2018-01-20T16:45:23.498Z,78.30
2018-01-20T16:47:53.150Z,77.64
2018-01-20T16:50:22.790Z,78.57
2018-01-20T16:52:52.323Z,78.23
2018-01-20T16:55:22.062Z,78.91
2018-01-20T16:57:51.405Z,78.19
2018-01-20T17:00:20.955Z,78.09
2018-01-20T17:02:50.423Z,78.18
2018-01-20T17:05:19.910Z,78.33
2018-01-20T17:07:49.266Z,78.41
2018-01-20T17:10:18.990Z,78.06
2018-01-20T17:12:48.266Z,79.01
2018-01-20T17:15:17.812Z,78.38
2018-01-20T17:17:47.470Z,77.24
2018-01-20T17:20:16.900Z,78.16
2018-01-20T17:22:46.214Z,77.71
2018-01-20T17:25:17.119Z,80.47
2018-01-20T17:27:46.550Z,80.15
2018-01-20T17:30:16.130Z,80.43
2018-01-20T17:32:45.835Z,80.50
2018-01-20T17:35:15.322Z,80.23
2018-01-20T17:37:44.828Z,80.36
2018-01-20T17:40:14.867Z,80.23
2018-01-20T17:42:44.260Z,79.03
2018-01-20T17:45:13.678Z,79.67
2018-01-20T17:47:43.342Z,79.69
2018-01-20T17:50:12.968Z,79.82
2018-01-20T17:52:42.780Z,79.55
2018-01-20T17:55:13.104Z,80.51
2018-01-20T17:57:42.702Z,79.73
2018-01-20T18:00:12.294Z,79.61
2018-01-20T18:02:42.039Z,79.64
2018-01-20T18:05:12.450Z,79.30
2018-01-20T18:07:42.011Z,79.64
2018-01-20T18:10:11.676Z,79.92
2018-01-20T18:12:41.082Z,80.48
2018-01-20T18:15:10.510Z,80.26
2018-01-20T18:17:40.372Z,81.29
2018-01-20T18:20:10.030Z,81.42
2018-01-20T18:22:39.715Z,80.31
2018-01-20T18:25:10.811Z,80.26
2018-01-20T18:27:40.206Z,80.95
2018-01-20T18:30:09.731Z,80.13
2018-01-20T18:32:39.435Z,80.83
2018-01-20T18:35:09.538Z,80.38
2018-01-20T18:37:39.084Z,79.93
2018-01-20T18:40:09.881Z,79.80
2018-01-20T18:42:39.578Z,80.90
2018-01-20T18:45:09.199Z,80.86
2018-01-20T18:47:38.900Z,79.82
2018-01-20T18:50:08.998Z,80.44
2018-01-20T18:52:38.443Z,80.18
2018-01-20T18:55:08.755Z,80.43
2018-01-20T18:57:38.585Z,80.15
2018-01-20T19:00:09.051Z,80.29
2018-01-20T19:02:39.269Z,80.03
2018-01-20T19:05:09.683Z,80.46
2018-01-20T19:07:39.567Z,80.70
2018-01-20T19:10:09.855Z,79.86
2018-01-20T19:12:39.646Z,80.19
2018-01-20T19:15:10.572Z,81.12
2018-01-20T19:17:41.008Z,80.13
2018-01-20T19:20:11.250Z,80.39
2018-01-20T19:22:40.714Z,80.49
2018-01-20T19:25:10.636Z,81.51
2018-01-20T19:27:40.276Z,81.24
2018-01-20T19:30:10.796Z,81.24
2018-01-20T19:32:40.503Z,81.59
2018-01-20T19:35:10.094Z,82.77
2018-01-20T19:37:40.195Z,85.50
2018-01-20T19:40:10.328Z,86.17
2018-01-20T19:42:40.155Z,88.03
2018-01-20T19:45:10.607Z,85.51
2018-01-20T19:47:40.806Z,85.24
2018-01-20T19:50:10.231Z,83.57
2018-01-20T19:52:39.902Z,83.51
2018-01-20T19:55:09.635Z,83.22
2018-01-20T19:57:39.149Z,82.51
2018-01-20T20:00:08.923Z,82.22
2018-01-20T20:02:38.659Z,81.88
2018-01-20T20:05:08.006Z,82.18
2018-01-20T20:07:37.395Z,82.06
2018-01-20T20:10:07.422Z,82.27
2018-01-20T20:12:36.818Z,82.63
2018-01-20T20:15:06.390Z,83.09
2018-01-20T20:17:36.220Z,83.07
2018-01-20T20:20:05.979Z,82.41
2018-01-20T20:22:35.474Z,84.25
2018-01-20T20:25:07.218Z,83.54
2018-01-20T20:27:36.682Z,82.68
2018-01-20T20:30:07.550Z,82.99
2018-01-20T20:32:37.336Z,82.20
2018-01-20T20:35:06.770Z,82.40
2018-01-20T20:37:36.122Z,82.27
2018-01-20T20:40:06.908Z,83.18
2018-01-20T20:42:36.317Z,82.52
2018-01-20T20:45:05.683Z,83.08
2018-01-20T20:47:35.415Z,84.31
2018-01-20T20:50:05.035Z,83.18
2018-01-20T20:52:34.342Z,82.47
2018-01-20T20:55:03.800Z,83.48
2018-01-20T20:57:33.251Z,83.13
2018-01-20T21:00:03.304Z,84.42
2018-01-20T21:02:32.932Z,84.87
2018-01-20T21:05:02.507Z,84.25
2018-01-20T21:07:31.855Z,83.75
2018-01-20T21:10:01.951Z,84.19
2018-01-20T21:12:31.258Z,84.04
2018-01-20T21:15:01.187Z,82.93
2018-01-20T21:17:30.842Z,83.34
2018-01-20T21:20:00.226Z,82.93
2018-01-20T21:22:29.577Z,83.18
2018-01-20T21:24:59.534Z,83.07
2018-01-20T21:27:31.112Z,83.75
2018-01-20T21:30:00.855Z,82.97
2018-01-20T21:32:31.401Z,83.64
2018-01-20T21:35:00.983Z,83.30
2018-01-20T21:37:30.685Z,83.52
2018-01-20T21:40:02.577Z,84.52
2018-01-20T21:42:32.402Z,85.81
2018-01-20T21:45:01.994Z,87.80
2018-01-20T21:47:32.311Z,87.29
2018-01-20T21:50:02.110Z,88.83
2018-01-20T21:52:31.462Z,89.03
2018-01-20T21:55:00.986Z,90.50
2018-01-20T21:57:31.494Z,90.30
2018-01-20T22:00:01.247Z,90.19
2018-01-20T22:02:30.730Z,90.82
2018-01-20T22:05:00.622Z,87.29
2018-01-20T22:07:29.944Z,86.93
2018-01-20T22:10:01.832Z,87.72
2018-01-20T22:12:31.422Z,86.84
2018-01-20T22:15:01.067Z,87.02
2018-01-20T22:17:30.391Z,86.99
2018-01-20T22:20:00.594Z,87.23
2018-01-20T22:22:30.095Z,85.98
2018-01-20T22:24:59.515Z,85.29
2018-01-20T22:27:29.327Z,85.55
2018-01-20T22:29:58.754Z,85.35
2018-01-20T22:32:31.040Z,86.39
2018-01-20T22:35:02.183Z,88.90
2018-01-20T22:37:31.510Z,87.54
2018-01-20T22:40:04.536Z,87.31
2018-01-20T22:42:34.300Z,89.51
2018-01-20T22:45:04.324Z,89.21
2018-01-20T22:47:34.557Z,91.89
2018-01-20T22:50:06.060Z,94.61
2018-01-20T22:52:35.473Z,94.04
2018-01-20T22:55:05.330Z,94.05
2018-01-20T22:57:35.483Z,96.00
2018-01-20T23:00:05.698Z,92.44
2018-01-20T23:02:35.023Z,90.05
2018-01-20T23:05:04.802Z,88.64
2018-01-20T23:07:34.827Z,88.05
2018-01-20T23:11:13.223Z,88.12
2018-01-20T23:13:42.806Z,88.91
2018-01-20T23:16:12.264Z,89.54
2018-01-20T23:18:41.720Z,90.59
2018-01-20T23:21:11.091Z,90.48
2018-01-20T23:23:40.681Z,88.96
2018-01-20T23:26:10.976Z,88.22
2018-01-20T23:28:41.673Z,92.30
2018-01-20T23:31:10.982Z,93.04
2018-01-20T23:33:41.046Z,94.83
2018-01-20T23:36:10.770Z,95.70
2018-01-20T23:38:40.258Z,95.61
2018-01-20T23:41:09.614Z,92.65
2018-01-20T23:43:39.370Z,90.55
2018-01-20T23:46:08.688Z,92.71
2018-01-20T23:48:38.104Z,90.69
2018-01-20T23:51:07.703Z,91.40
2018-01-20T23:53:37.058Z,92.64
2018-01-20T23:56:06.522Z,93.88
2018-01-20T23:58:36.170Z,96.08
